Time;durP1;ratioP1;P1;durP2;ratioP2;P2;SDS_P1;SDS_P2;PMS_P1;PMS_P2;Temp;Humidity;BMP_temperature;BMP_pressure;BME280_temperature;BME280_humidity;BME280_pressure;Samples;Min_cycle;Max_cycle;Signal;HPM_P1;HPM_P2
2023/06/17 00:02:20;;;;;;;11.60;7.40;;;15.30;99.90;;;;;;5089876;28;20129;-70
2023/06/17 00:04:47;;;;;;;11.82;7.90;;;15.30;99.90;;;;;;5090406;28;20075;-70
2023/06/17 00:07:12;;;;;;;10.63;7.40;;;15.30;99.90;;;;;;5092490;28;20071;-70
2023/06/17 00:09:41;;;;;;;9.95;7.32;;;15.30;99.90;;;;;;5090222;28;20079;-70
2023/06/17 00:12:07;;;;;;;10.38;6.78;;;15.20;99.90;;;;;;5092525;28;20430;-70
2023/06/17 00:14:33;;;;;;;10.02;7.45;;;15.20;99.90;;;;;;5090501;28;20487;-70
2023/06/17 00:17:00;;;;;;;10.40;7.72;;;15.20;99.90;;;;;;5070068;28;20135;-70
2023/06/17 00:19:28;;;;;;;12.27;7.43;;;15.20;99.90;;;;;;5072038;28;20044;-70
2023/06/17 00:21:54;;;;;;;12.52;7.90;;;15.20;99.90;;;;;;5070321;28;20381;-70
2023/06/17 00:24:20;;;;;;;10.77;7.50;;;15.10;99.90;;;;;;5070127;28;20124;-70
2023/06/17 00:26:46;;;;;;;9.50;7.22;;;15.10;99.90;;;;;;5071988;28;20056;-70
2023/06/17 00:29:12;;;;;;;10.68;7.22;;;15.10;99.90;;;;;;5077106;28;20047;-70
2023/06/17 00:31:38;;;;;;;9.77;7.40;;;15.00;99.90;;;;;;5094665;28;20052;-70
2023/06/17 00:34:03;;;;;;;13.40;7.85;;;15.00;99.90;;;;;;5094757;28;20131;-70
2023/06/17 00:36:29;;;;;;;10.85;7.32;;;15.00;99.90;;;;;;5094546;28;20040;-70
2023/06/17 00:38:55;;;;;;;13.15;7.68;;;15.00;99.90;;;;;;5094104;28;20096;-70
2023/06/17 00:41:21;;;;;;;12.00;7.80;;;15.00;99.90;;;;;;5095642;28;20055;-70
2023/06/17 00:43:46;;;;;;;12.65;7.32;;;15.00;99.90;;;;;;5094316;28;20040;-70
2023/06/17 00:46:32;;;;;;;12.50;7.85;;;15.00;99.90;;;;;;5093592;28;20044;-70
2023/06/17 00:48:58;;;;;;;14.23;7.93;;;15.30;99.90;;;;;;5080033;28;20074;-70
2023/06/17 00:51:23;;;;;;;11.57;7.57;;;15.20;99.90;;;;;;5127383;27;20040;-71
2023/06/17 00:53:50;;;;;;;13.10;8.00;;;15.30;99.90;;;;;;5095073;28;20040;-70
2023/06/17 00:56:17;;;;;;;13.40;8.20;;;15.20;99.90;;;;;;5094283;28;20052;-70
2023/06/17 00:58:44;;;;;;;11.45;8.07;;;15.20;99.90;;;;;;5092810;28;20037;-70
2023/06/17 01:01:10;;;;;;;11.93;8.10;;;15.20;99.90;;;;;;5093601;28;20522;-70
2023/06/17 01:03:38;;;;;;;10.93;7.82;;;15.10;99.90;;;;;;5095254;28;20080;-70
2023/06/17 01:06:33;;;;;;;17.80;8.73;;;15.30;99.90;;;;;;5093472;28;20028;-70
2023/06/17 01:09:12;;;;;;;11.07;8.55;;;15.10;99.90;;;;;;5095591;28;20036;-70
2023/06/17 01:11:41;;;;;;;11.82;9.57;;;15.10;99.90;;;;;;5094015;28;20055;-70
2023/06/17 01:14:12;;;;;;;12.15;8.20;;;15.10;99.90;;;;;;5093795;28;20114;-70
2023/06/17 01:16:41;;;;;;;16.30;9.32;;;15.20;99.90;;;;;;5094540;28;20100;-70
2023/06/17 01:19:18;;;;;;;13.70;8.50;;;15.10;99.90;;;;;;5095641;28;20051;-70
2023/06/17 01:21:53;;;;;;;13.20;8.75;;;15.10;99.90;;;;;;5092859;28;20083;-70
2023/06/17 01:24:26;;;;;;;11.50;8.05;;;15.10;99.90;;;;;;5074963;28;20488;-70
2023/06/17 01:26:54;;;;;;;14.80;8.10;;;15.10;99.90;;;;;;5072448;28;20045;-70
2023/06/17 01:29:20;;;;;;;12.15;8.23;;;15.10;99.90;;;;;;5074024;28;20102;-70
2023/06/17 01:31:49;;;;;;;11.43;8.48;;;15.00;99.90;;;;;;5106982;28;20084;-70
2023/06/17 01:34:17;;;;;;;13.95;9.13;;;15.00;99.90;;;;;;5106839;28;20052;-70
2023/06/17 01:36:45;;;;;;;13.93;9.10;;;15.00;99.90;;;;;;5106687;28;20562;-70
2023/06/17 01:39:16;;;;;;;15.23;8.90;;;14.90;99.90;;;;;;5125536;27;20075;-69
2023/06/17 01:41:48;;;;;;;14.75;9.48;;;15.00;99.90;;;;;;5092506;28;20040;-70
2023/06/17 01:44:15;;;;;;;15.35;9.38;;;15.00;99.90;;;;;;5095406;28;20040;-70
2023/06/17 01:46:44;;;;;;;14.88;10.25;;;15.10;99.90;;;;;;5093296;28;20131;-70
2023/06/17 01:49:10;;;;;;;14.23;11.00;;;15.10;99.90;;;;;;5094099;28;20097;-70
2023/06/17 01:51:36;;;;;;;14.05;10.30;;;15.20;99.90;;;;;;5092904;28;20127;-70
2023/06/17 01:54:04;;;;;;;16.23;12.00;;;15.30;99.90;;;;;;5095047;28;20368;-70
2023/06/17 01:56:30;;;;;;;17.02;11.27;;;15.40;99.90;;;;;;5093064;28;20063;-70
2023/06/17 01:58:56;;;;;;;16.17;10.98;;;15.50;99.90;;;;;;5094028;28;20039;-70
2023/06/17 02:01:22;;;;;;;17.50;11.10;;;15.60;99.90;;;;;;5093575;28;20555;-71
2023/06/17 02:03:47;;;;;;;16.67;10.70;;;15.60;99.90;;;;;;5093484;28;20044;-70
2023/06/17 02:06:13;;;;;;;17.83;11.75;;;15.70;99.90;;;;;;5127521;27;20093;-70
2023/06/17 02:08:39;;;;;;;15.75;11.68;;;15.70;99.90;;;;;;5092268;28;20043;-70
2023/06/17 02:11:04;;;;;;;16.70;10.88;;;15.70;99.90;;;;;;5126617;27;20134;-70
2023/06/17 02:13:30;;;;;;;15.88;10.20;;;15.70;99.90;;;;;;5093211;28;20047;-71
2023/06/17 02:15:56;;;;;;;15.18;10.30;;;15.80;99.90;;;;;;5091866;28;20055;-70
2023/06/17 02:18:22;;;;;;;16.80;9.98;;;15.80;99.90;;;;;;5093589;28;20047;-71
2023/06/17 02:20:48;;;;;;;17.48;10.00;;;15.80;99.90;;;;;;5092598;28;20059;-70
2023/06/17 02:23:13;;;;;;;18.15;9.48;;;15.90;99.90;;;;;;5093983;28;20035;-71
2023/06/17 02:25:39;;;;;;;14.38;9.30;;;15.90;99.90;;;;;;5126922;27;20047;-71
2023/06/17 02:28:06;;;;;;;15.32;9.18;;;16.00;99.90;;;;;;5094167;28;20419;-70
2023/06/17 02:30:32;;;;;;;15.45;9.52;;;16.00;99.90;;;;;;5093134;28;20079;-71
2023/06/17 02:32:57;;;;;;;16.63;8.95;;;16.10;99.90;;;;;;5124103;27;20079;-70
2023/06/17 02:35:26;;;;;;;14.98;10.25;;;16.10;99.90;;;;;;5092902;28;20074;-70
2023/06/17 02:37:53;;;;;;;14.20;9.52;;;16.10;99.90;;;;;;5092464;28;20859;-70
2023/06/17 02:40:19;;;;;;;14.30;9.18;;;16.10;99.90;;;;;;5093950;28;20070;-70
2023/06/17 02:42:45;;;;;;;15.48;10.02;;;16.10;99.90;;;;;;5092427;28;20062;-70
2023/06/17 02:45:12;;;;;;;13.95;10.57;;;16.20;99.90;;;;;;5091186;28;20048;-70
2023/06/17 02:47:40;;;;;;;13.10;9.25;;;16.10;99.90;;;;;;5093406;28;20083;-71
2023/06/17 02:50:09;;;;;;;17.10;9.68;;;16.20;99.90;;;;;;5093846;28;20048;-70
2023/06/17 02:52:37;;;;;;;15.20;10.10;;;16.20;99.90;;;;;;5091272;28;20117;-70
2023/06/17 02:55:03;;;;;;;19.05;10.68;;;16.30;99.90;;;;;;5092459;28;20051;-70
2023/06/17 02:57:31;;;;;;;15.23;9.77;;;16.20;99.90;;;;;;5093054;28;20044;-70
2023/06/17 02:59:57;;;;;;;17.02;9.90;;;16.30;99.90;;;;;;5091467;28;20044;-69
2023/06/17 03:02:23;;;;;;;16.92;9.95;;;16.30;99.90;;;;;;5093221;28;20039;-70
2023/06/17 03:04:49;;;;;;;15.05;9.77;;;16.30;99.90;;;;;;5093163;28;20047;-70
2023/06/17 03:07:16;;;;;;;19.08;9.93;;;16.30;99.90;;;;;;5091362;28;20071;-69
2023/06/17 03:09:42;;;;;;;18.90;9.77;;;16.30;99.90;;;;;;5092690;28;20047;-69
2023/06/17 03:12:08;;;;;;;15.10;10.43;;;16.30;99.90;;;;;;5124813;27;20036;-70
2023/06/17 03:14:35;;;;;;;16.65;9.80;;;16.40;99.90;;;;;;5090737;28;20472;-70
2023/06/17 03:17:02;;;;;;;14.95;10.20;;;16.40;99.90;;;;;;5092298;28;20410;-69
2023/06/17 03:19:28;;;;;;;16.50;10.25;;;16.40;99.90;;;;;;5088261;28;20040;-71
2023/06/17 03:21:54;;;;;;;14.40;10.10;;;16.30;99.90;;;;;;5092051;28;20429;-70
2023/06/17 03:24:20;;;;;;;16.00;10.75;;;16.30;99.90;;;;;;5092930;28;20036;-70
2023/06/17 03:26:46;;;;;;;15.13;10.82;;;16.30;99.90;;;;;;5090624;28;20051;-71
2023/06/17 03:29:11;;;;;;;15.10;10.43;;;16.30;99.90;;;;;;5091922;28;20044;-71
2023/06/17 03:31:37;;;;;;;16.35;10.60;;;16.30;99.90;;;;;;5092531;28;20059;-70
2023/06/17 03:34:03;;;;;;;15.02;9.95;;;16.30;99.90;;;;;;5091240;28;20127;-70
2023/06/17 03:36:31;;;;;;;17.05;10.93;;;16.30;99.90;;;;;;5091739;28;20044;-70
2023/06/17 03:38:57;;;;;;;12.85;10.30;;;16.40;99.90;;;;;;5092871;28;20044;-71
2023/06/17 03:41:26;;;;;;;13.40;10.05;;;16.30;99.90;;;;;;5090697;28;20048;-71
2023/06/17 03:43:52;;;;;;;13.45;9.48;;;16.30;99.90;;;;;;5093386;28;20044;-70
2023/06/17 03:46:21;;;;;;;16.15;9.80;;;16.30;99.90;;;;;;5086062;28;20036;-70
2023/06/17 03:48:47;;;;;;;13.65;9.98;;;16.40;99.90;;;;;;5071931;28;20052;-71
2023/06/17 03:51:13;;;;;;;19.02;10.13;;;16.40;99.90;;;;;;5073190;28;20044;-70
2023/06/17 03:53:38;;;;;;;16.50;10.57;;;16.50;99.90;;;;;;5071777;28;20086;-69
2023/06/17 03:56:04;;;;;;;12.57;9.35;;;16.50;99.90;;;;;;5080666;28;20054;-71
2023/06/17 03:58:30;;;;;;;13.32;9.70;;;16.60;99.90;;;;;;5091053;28;20149;-71
2023/06/17 04:00:56;;;;;;;15.45;10.23;;;16.60;99.90;;;;;;5091005;28;20056;-69
2023/06/17 04:03:26;;;;;;;16.77;10.13;;;16.60;99.90;;;;;;5093229;28;20555;-70
2023/06/17 04:05:52;;;;;;;19.67;10.13;;;16.60;99.90;;;;;;5096596;28;20073;-72
2023/06/17 04:08:19;;;;;;;17.42;10.65;;;16.60;99.90;;;;;;5096123;28;20047;-74
2023/06/17 04:10:47;;;;;;;14.80;10.00;;;16.60;99.90;;;;;;5096314;28;20051;-71
2023/06/17 04:13:16;;;;;;;14.68;11.38;;;16.70;99.90;;;;;;5096107;28;20096;-71
2023/06/17 04:15:45;;;;;;;17.17;12.00;;;16.70;99.90;;;;;;5075529;28;20476;-71
2023/06/17 04:18:11;;;;;;;18.08;12.40;;;16.70;99.90;;;;;;5076355;28;20032;-70
2023/06/17 04:20:37;;;;;;;18.42;13.95;;;16.70;99.90;;;;;;5089540;28;20372;-71
2023/06/17 04:23:04;;;;;;;19.75;13.68;;;16.70;99.90;;;;;;5095075;28;20063;-71
2023/06/17 04:25:32;;;;;;;18.17;11.88;;;16.70;99.90;;;;;;5095861;28;20040;-71
2023/06/17 04:28:01;;;;;;;17.88;12.65;;;16.80;99.90;;;;;;5094265;28;20101;-71
2023/06/17 04:30:27;;;;;;;14.45;11.93;;;16.70;99.90;;;;;;5092940;28;20465;-71
2023/06/17 04:33:00;;;;;;;17.50;13.05;;;16.70;99.90;;;;;;5092560;28;20124;-71
2023/06/17 04:35:44;;;;;;;19.85;11.48;;;16.70;99.90;;;;;;5092899;28;20064;-71
2023/06/17 04:38:11;;;;;;;18.23;11.82;;;16.70;99.90;;;;;;5106230;28;20048;-71
2023/06/17 04:40:37;;;;;;;16.35;11.25;;;16.70;99.90;;;;;;5073843;28;20080;-71
2023/06/17 04:43:03;;;;;;;16.00;11.43;;;16.70;99.90;;;;;;5072284;28;20056;-71
2023/06/17 04:45:30;;;;;;;14.63;11.60;;;16.80;99.90;;;;;;5072206;28;20068;-71
2023/06/17 04:47:56;;;;;;;17.58;12.65;;;16.90;99.90;;;;;;5109935;27;20056;-71
2023/06/17 04:50:23;;;;;;;15.00;11.63;;;17.00;99.90;;;;;;5093199;28;20082;-71
2023/06/17 04:52:51;;;;;;;15.43;11.40;;;16.90;99.90;;;;;;5093440;28;20076;-71
2023/06/17 04:55:18;;;;;;;14.13;11.15;;;17.00;99.90;;;;;;5093135;28;20048;-71
2023/06/17 04:57:45;;;;;;;16.58;10.93;;;17.00;99.90;;;;;;5094428;28;20490;-71
2023/06/17 05:00:14;;;;;;;16.00;10.88;;;17.10;99.90;;;;;;5095056;28;20044;-71
2023/06/17 05:02:40;;;;;;;15.25;11.40;;;17.10;99.90;;;;;;5093828;28;20101;-71
2023/06/17 05:05:06;;;;;;;17.90;10.93;;;17.20;99.90;;;;;;5095278;28;20044;-71
2023/06/17 05:07:33;;;;;;;14.93;9.98;;;17.20;99.90;;;;;;5094649;28;20054;-71
2023/06/17 05:09:59;;;;;;;15.55;10.55;;;17.30;99.90;;;;;;5094520;28;20055;-71
2023/06/17 05:12:25;;;;;;;17.73;10.68;;;17.30;99.90;;;;;;5094866;28;20082;-70
2023/06/17 05:14:51;;;;;;;15.70;10.52;;;17.30;99.90;;;;;;5094767;28;20504;-71
2023/06/17 05:17:17;;;;;;;14.90;10.20;;;17.30;99.90;;;;;;5095536;28;20036;-71
2023/06/17 05:19:42;;;;;;;13.98;10.65;;;17.40;99.90;;;;;;5094456;28;20048;-71
2023/06/17 05:22:08;;;;;;;15.85;10.05;;;17.40;99.90;;;;;;5094606;28;20059;-71
2023/06/17 05:24:34;;;;;;;15.57;10.65;;;17.40;99.90;;;;;;5094313;28;20511;-71
2023/06/17 05:26:59;;;;;;;18.50;10.60;;;17.50;99.90;;;;;;5091113;28;20083;-71
2023/06/17 05:29:31;;;;;;;15.38;10.02;;;17.50;99.90;;;;;;5093274;28;20047;-71
2023/06/17 05:31:57;;;;;;;15.30;9.48;;;17.50;99.90;;;;;;5094334;28;20056;-71
2023/06/17 05:34:23;;;;;;;13.05;9.50;;;17.50;99.90;;;;;;5092871;28;20074;-71
2023/06/17 05:36:49;;;;;;;13.13;9.25;;;17.50;99.90;;;;;;5092869;28;20487;-71
2023/06/17 05:39:15;;;;;;;14.45;9.32;;;17.60;99.90;;;;;;5094434;28;20100;-71
2023/06/17 05:41:40;;;;;;;12.73;8.73;;;17.70;99.90;;;;;;5089575;28;20067;-71
2023/06/17 05:44:06;;;;;;;11.38;8.05;;;17.60;99.90;;;;;;5092419;28;20079;-71
2023/06/17 05:46:32;;;;;;;12.63;8.05;;;17.70;99.90;;;;;;5092566;28;20062;-71
2023/06/17 05:48:57;;;;;;;13.65;8.13;;;17.80;99.90;;;;;;5091141;28;20388;-71
2023/06/17 05:51:28;;;;;;;13.00;7.93;;;17.90;99.90;;;;;;5092476;28;20043;-71
2023/06/17 05:53:53;;;;;;;14.63;8.75;;;18.00;99.90;;;;;;5091385;28;20522;-72
2023/06/17 05:56:19;;;;;;;14.15;8.35;;;18.00;99.90;;;;;;5094001;28;20072;-71
2023/06/17 05:58:46;;;;;;;12.60;8.38;;;17.40;99.90;;;;;;5093279;28;20171;-71
2023/06/17 06:01:11;;;;;;;12.70;8.25;;;18.20;99.90;;;;;;5092815;28;20046;-72
2023/06/17 06:03:37;;;;;;;13.85;8.23;;;18.20;99.90;;;;;;5093858;28;20040;-71
2023/06/17 06:06:03;;;;;;;10.35;8.02;;;18.30;99.90;;;;;;5127058;27;20426;-71
2023/06/17 06:08:28;;;;;;;11.07;8.27;;;18.40;99.90;;;;;;5093526;28;20109;-71
2023/06/17 06:10:54;;;;;;;16.13;8.40;;;18.40;99.90;;;;;;5094006;28;20044;-71
2023/06/17 06:13:20;;;;;;;12.32;7.75;;;18.50;99.90;;;;;;5092048;28;20105;-70
2023/06/17 06:15:46;;;;;;;12.85;8.48;;;18.50;99.90;;;;;;5091543;28;20052;-70
2023/06/17 06:18:13;;;;;;;12.93;8.45;;;18.50;99.90;;;;;;5092909;28;20043;-70
2023/06/17 06:20:38;;;;;;;14.13;8.55;;;18.60;99.90;;;;;;5091762;28;20048;-69
2023/06/17 06:23:04;;;;;;;11.52;8.18;;;18.70;99.90;;;;;;5092648;28;20043;-69
2023/06/17 06:25:30;;;;;;;11.45;8.10;;;18.80;99.90;;;;;;5092175;28;20458;-69
2023/06/17 06:27:55;;;;;;;11.75;8.23;;;18.80;99.90;;;;;;5093422;28;20044;-69
2023/06/17 06:30:21;;;;;;;11.85;7.85;;;18.90;99.90;;;;;;5091726;28;20039;-69
2023/06/17 06:32:47;;;;;;;11.85;7.72;;;19.00;99.90;;;;;;5091868;28;20047;-69
2023/06/17 06:35:16;;;;;;;12.75;8.77;;;19.10;99.90;;;;;;5092474;28;20097;-69
2023/06/17 06:37:42;;;;;;;15.75;8.13;;;19.10;99.90;;;;;;5091195;28;20506;-70
2023/06/17 06:40:08;;;;;;;12.05;7.93;;;19.30;99.90;;;;;;5093685;28;20040;-69
2023/06/17 06:42:33;;;;;;;12.10;8.43;;;19.30;99.90;;;;;;5088870;28;20040;-70
2023/06/17 06:44:59;;;;;;;13.13;8.60;;;19.30;99.90;;;;;;5089650;28;20040;-69
2023/06/17 06:47:28;;;;;;;13.13;8.70;;;19.30;99.90;;;;;;5091141;28;20048;-70
2023/06/17 06:49:53;;;;;;;12.80;7.88;;;19.30;99.90;;;;;;5092503;28;20051;-70
2023/06/17 06:52:20;;;;;;;12.30;8.93;;;19.30;99.90;;;;;;5090422;28;20051;-69
2023/06/17 06:54:46;;;;;;;13.50;8.00;;;19.40;99.90;;;;;;5091593;28;20052;-71
2023/06/17 06:57:12;;;;;;;13.10;8.32;;;19.50;99.90;;;;;;5091396;28;20040;-71
2023/06/17 06:59:37;;;;;;;13.43;9.15;;;19.60;99.90;;;;;;5090781;28;20097;-71
2023/06/17 07:02:03;;;;;;;14.50;8.90;;;19.70;99.90;;;;;;5090820;28;20468;-71
2023/06/17 07:04:29;;;;;;;13.48;8.82;;;19.80;99.90;;;;;;5091272;28;20043;-70
2023/06/17 07:06:55;;;;;;;13.90;8.23;;;20.00;99.90;;;;;;5090647;28;20112;-71
2023/06/17 07:09:21;;;;;;;13.25;8.27;;;20.10;99.90;;;;;;5090695;28;20123;-71
2023/06/17 07:11:47;;;;;;;12.55;8.10;;;20.20;99.90;;;;;;5090624;28;20131;-71
2023/06/17 07:14:13;;;;;;;11.80;8.10;;;20.50;99.90;;;;;;5092071;28;20123;-71
2023/06/17 07:16:38;;;;;;;12.75;8.10;;;20.70;99.90;;;;;;5081478;28;20080;-70
2023/06/17 07:19:04;;;;;;;12.25;8.02;;;20.90;99.90;;;;;;5083949;28;20058;-70
2023/06/17 07:21:30;;;;;;;16.48;8.77;;;21.40;99.90;;;;;;5090793;28;20044;-71
2023/06/17 07:23:56;;;;;;;13.25;8.07;;;22.10;99.90;;;;;;5092312;28;20094;-72
2023/06/17 07:26:22;;;;;;;13.13;7.65;;;22.80;99.90;;;;;;5090930;28;20042;-72
2023/06/17 07:28:48;;;;;;;12.13;8.38;;;23.50;99.90;;;;;;5090785;28;20087;-72
2023/06/17 07:31:13;;;;;;;10.48;7.47;;;24.20;99.90;;;;;;5091108;28;20560;-69
2023/06/17 07:33:42;;;;;;;13.93;7.57;;;24.70;99.90;;;;;;5091663;28;20036;-73
2023/06/17 07:36:08;;;;;;;11.30;7.70;;;25.00;99.90;;;;;;5091382;28;20032;-72
2023/06/17 07:38:34;;;;;;;10.80;7.05;;;25.20;99.20;;;;;;5095353;28;20433;-72
2023/06/17 07:41:00;;;;;;;11.60;7.78;;;25.50;98.50;;;;;;5093337;28;20399;-72
2023/06/17 07:43:26;;;;;;;12.30;6.97;;;25.70;98.80;;;;;;5094823;28;20052;-72
2023/06/17 07:45:52;;;;;;;8.63;7.05;;;25.90;97.50;;;;;;5094477;28;20047;-71
2023/06/17 07:48:18;;;;;;;14.30;7.32;;;26.10;97.30;;;;;;5094291;28;20049;-72
2023/06/17 07:50:44;;;;;;;13.02;7.47;;;26.50;97.30;;;;;;5095973;28;20067;-72
2023/06/17 07:53:13;;;;;;;12.07;7.45;;;26.60;96.60;;;;;;5096745;28;20079;-72
2023/06/17 07:55:39;;;;;;;10.50;8.32;;;26.90;96.50;;;;;;5095272;28;20083;-71
2023/06/17 07:58:05;;;;;;;11.43;7.57;;;26.80;96.50;;;;;;5096467;28;20048;-72
2023/06/17 08:00:30;;;;;;;9.75;7.15;;;26.70;96.00;;;;;;5095612;28;20044;-71
2023/06/17 08:02:56;;;;;;;11.75;7.18;;;26.80;96.10;;;;;;5095538;28;20040;-71
2023/06/17 08:05:22;;;;;;;11.25;7.50;;;26.90;95.00;;;;;;5096088;28;20079;-72
2023/06/17 08:07:47;;;;;;;10.05;7.20;;;26.80;94.80;;;;;;5089560;28;20449;-71
2023/06/17 08:10:13;;;;;;;9.88;7.20;;;27.10;95.20;;;;;;5095467;28;20036;-71
2023/06/17 08:12:39;;;;;;;12.55;8.80;;;27.00;94.60;;;;;;5093933;28;20044;-71
2023/06/17 08:15:05;;;;;;;12.02;7.40;;;27.30;94.60;;;;;;5094468;28;20054;-71
2023/06/17 08:17:32;;;;;;;12.00;7.00;;;27.80;94.50;;;;;;5092565;28;20077;-71
2023/06/17 08:19:57;;;;;;;10.55;6.32;;;27.90;93.40;;;;;;5092953;28;20043;-71
2023/06/17 08:22:23;;;;;;;12.32;6.97;;;28.00;93.60;;;;;;5091851;28;20043;-71
2023/06/17 08:24:48;;;;;;;12.15;7.00;;;28.40;93.40;;;;;;5093529;28;20613;-71
2023/06/17 08:27:14;;;;;;;11.40;6.93;;;27.60;92.60;;;;;;5094280;28;20092;-72
2023/06/17 08:29:40;;;;;;;13.10;8.02;;;27.30;94.00;;;;;;5091590;28;20071;-72
2023/06/17 08:32:06;;;;;;;14.65;7.18;;;27.70;94.00;;;;;;5094097;28;20503;-71
2023/06/17 08:34:36;;;;;;;9.55;7.07;;;28.20;93.50;;;;;;5092687;28;20076;-72
2023/06/17 08:37:04;;;;;;;8.88;5.93;;;27.90;92.40;;;;;;5092448;28;20040;-72
2023/06/17 08:39:38;;;;;;;10.35;6.55;;;27.90;93.10;;;;;;5094934;28;20097;-72
2023/06/17 08:42:05;;;;;;;10.37;6.83;;;28.00;92.40;;;;;;5093535;28;20047;-71
2023/06/17 08:44:33;;;;;;;10.57;6.43;;;28.00;92.60;;;;;;5093169;28;20044;-71
2023/06/17 08:47:03;;;;;;;10.30;6.32;;;28.20;92.60;;;;;;5095391;28;20113;-71
2023/06/17 08:49:30;;;;;;;13.35;7.82;;;28.20;92.80;;;;;;5094047;28;20044;-71
2023/06/17 08:52:00;;;;;;;10.88;6.40;;;28.30;92.40;;;;;;5093409;28;20047;-72
2023/06/17 08:54:27;;;;;;;12.10;7.47;;;28.60;92.20;;;;;;5094003;28;20043;-71
2023/06/17 08:56:53;;;;;;;10.65;7.28;;;28.70;92.30;;;;;;5094251;28;20090;-72
2023/06/17 08:59:20;;;;;;;12.32;8.00;;;29.10;92.20;;;;;;5094788;28;20421;-70
2023/06/17 09:01:47;;;;;;;11.75;7.85;;;29.40;92.10;;;;;;5094566;28;20054;-72
2023/06/17 09:04:14;;;;;;;11.85;8.10;;;29.50;91.70;;;;;;5092601;28;20126;-71
2023/06/17 09:06:40;;;;;;;10.18;7.32;;;29.20;90.90;;;;;;5094197;28;20044;-72
2023/06/17 09:09:06;;;;;;;11.10;7.70;;;29.10;91.70;;;;;;5094837;28;20478;-72
2023/06/17 09:11:32;;;;;;;10.90;7.95;;;29.00;91.70;;;;;;5092909;28;20071;-72
2023/06/17 09:14:00;;;;;;;10.40;7.60;;;29.10;91.30;;;;;;5093640;28;20093;-72
2023/06/17 09:16:30;;;;;;;10.35;7.18;;;29.10;91.20;;;;;;5093924;28;20051;-71
2023/06/17 09:18:57;;;;;;;12.63;7.88;;;29.40;90.80;;;;;;5093197;28;20127;-72
2023/06/17 09:21:24;;;;;;;12.48;8.32;;;29.40;91.00;;;;;;5094478;28;20039;-72
2023/06/17 09:24:01;;;;;;;11.98;8.15;;;29.80;90.60;;;;;;5093338;28;20048;-72
2023/06/17 09:26:32;;;;;;;10.32;7.30;;;29.40;90.70;;;;;;5092852;28;20052;-72
2023/06/17 09:29:02;;;;;;;10.48;8.10;;;30.00;91.10;;;;;;5094644;28;20059;-71
2023/06/17 09:31:28;;;;;;;13.15;8.80;;;30.00;90.60;;;;;;5092358;28;20134;-71
2023/06/17 09:33:54;;;;;;;11.70;7.72;;;30.20;90.70;;;;;;5091538;28;20040;-72
2023/06/17 09:36:21;;;;;;;12.35;8.02;;;30.20;90.10;;;;;;5093491;28;20080;-72
2023/06/17 09:38:48;;;;;;;8.40;6.70;;;29.60;90.60;;;;;;5094221;28;20075;-72
2023/06/17 09:41:14;;;;;;;11.40;7.15;;;30.20;91.20;;;;;;5093854;28;20052;-72
2023/06/17 09:43:41;;;;;;;9.48;7.00;;;30.00;90.30;;;;;;5091547;28;20375;-71
2023/06/17 09:46:09;;;;;;;10.30;6.63;;;30.30;89.80;;;;;;5093539;28;20048;-72
2023/06/17 09:48:40;;;;;;;9.90;7.30;;;30.40;89.60;;;;;;5092146;28;20090;-74
2023/06/17 09:51:09;;;;;;;14.30;7.63;;;30.40;90.40;;;;;;5094082;28;20044;-71
2023/06/17 09:53:36;;;;;;;11.98;7.10;;;29.90;89.80;;;;;;5090762;28;20048;-72
2023/06/17 09:56:02;;;;;;;9.38;7.15;;;30.00;90.50;;;;;;5094099;28;20676;-72
2023/06/17 09:58:30;;;;;;;13.32;7.07;;;30.20;89.50;;;;;;5094393;28;20101;-72
2023/06/17 10:01:06;;;;;;;11.13;6.20;;;30.00;90.10;;;;;;5090364;28;20044;-72
2023/06/17 10:03:36;;;;;;;12.68;7.20;;;30.50;89.30;;;;;;5092732;28;20085;-71
2023/06/17 10:06:06;;;;;;;11.02;7.00;;;31.10;87.40;;;;;;5094101;28;20126;-72
2023/06/17 10:08:36;;;;;;;10.27;6.60;;;30.90;88.60;;;;;;5092958;28;20032;-72
2023/06/17 10:11:02;;;;;;;9.82;6.07;;;31.10;87.00;;;;;;5092156;28;20047;-72
2023/06/17 10:13:31;;;;;;;8.02;6.28;;;31.40;87.50;;;;;;5092040;28;20039;-72
2023/06/17 10:15:59;;;;;;;10.18;6.53;;;31.50;87.40;;;;;;5091345;28;20048;-72
2023/06/17 10:18:26;;;;;;;11.43;7.25;;;31.70;86.80;;;;;;5092094;28;20044;-70
2023/06/17 10:20:53;;;;;;;9.95;7.05;;;31.80;87.00;;;;;;5093094;28;20421;-70
2023/06/17 10:23:22;;;;;;;9.15;6.68;;;31.20;87.30;;;;;;5091758;28;20048;-70
2023/06/17 10:25:47;;;;;;;9.13;7.22;;;31.30;87.70;;;;;;5092066;28;20335;-70
2023/06/17 10:28:16;;;;;;;8.57;6.53;;;31.50;87.70;;;;;;5093217;28;20123;-70
2023/06/17 10:30:46;;;;;;;11.25;6.97;;;31.60;86.10;;;;;;5092518;28;20059;-70
2023/06/17 10:33:14;;;;;;;9.13;6.65;;;31.10;85.30;;;;;;5092551;28;20083;-70
2023/06/17 10:35:50;;;;;;;10.32;6.85;;;30.90;86.80;;;;;;5091538;28;20083;-70
2023/06/17 10:38:29;;;;;;;10.52;6.95;;;30.60;87.20;;;;;;5092681;28;20059;-70
2023/06/17 10:40:56;;;;;;;9.57;6.70;;;30.70;88.40;;;;;;5093103;28;20091;-69
2023/06/17 10:43:22;;;;;;;10.98;6.72;;;30.30;87.00;;;;;;5091273;28;20048;-69
2023/06/17 10:45:58;;;;;;;14.30;7.15;;;30.40;88.60;;;;;;5091197;28;20048;-69
2023/06/17 10:48:34;;;;;;;12.05;6.82;;;30.50;88.00;;;;;;5092302;28;20072;-68
2023/06/17 10:51:01;;;;;;;9.25;6.78;;;30.80;86.50;;;;;;5091181;28;20051;-69
2023/06/17 10:53:31;;;;;;;10.02;7.18;;;30.70;85.80;;;;;;5092278;28;20040;-70
2023/06/17 10:56:00;;;;;;;12.18;6.78;;;30.60;87.50;;;;;;5093395;28;20040;-70
2023/06/17 10:58:37;;;;;;;9.20;6.78;;;30.70;87.50;;;;;;5090805;28;20047;-70
2023/06/17 11:01:08;;;;;;;10.13;7.18;;;30.60;87.90;;;;;;5091616;28;20365;-69
2023/06/17 11:03:37;;;;;;;10.90;6.53;;;30.30;87.60;;;;;;5090763;28;20052;-70
2023/06/17 11:06:05;;;;;;;10.90;7.03;;;30.40;87.50;;;;;;5092166;28;20127;-70
2023/06/17 11:08:32;;;;;;;10.52;7.25;;;30.30;88.00;;;;;;5089224;28;20115;-70
2023/06/17 11:11:13;;;;;;;8.77;6.75;;;30.20;87.40;;;;;;5092767;28;20047;-69
2023/06/17 11:13:44;;;;;;;9.10;6.78;;;30.80;86.80;;;;;;5091630;28;20056;-70
2023/06/17 11:16:12;;;;;;;11.85;7.22;;;30.70;86.70;;;;;;5090220;28;20063;-74
2023/06/17 11:18:40;;;;;;;9.27;6.45;;;30.90;87.10;;;;;;5090580;28;20043;-73
2023/06/17 11:21:07;;;;;;;11.13;7.38;;;30.90;86.70;;;;;;5090868;28;20051;-73
2023/06/17 11:23:35;;;;;;;10.38;6.88;;;30.70;86.50;;;;;;5091855;28;20434;-71
2023/06/17 11:26:02;;;;;;;13.35;6.93;;;30.30;85.70;;;;;;5089525;28;20089;-71
2023/06/17 11:28:35;;;;;;;9.63;6.45;;;30.10;87.20;;;;;;5091673;28;20472;-71
2023/06/17 11:31:01;;;;;;;9.77;6.60;;;30.00;87.30;;;;;;5091202;28;20059;-71
2023/06/17 11:33:28;;;;;;;8.63;6.28;;;30.00;86.90;;;;;;5091934;28;20044;-69
2023/06/17 11:35:54;;;;;;;9.95;7.00;;;29.70;87.20;;;;;;5089609;28;20051;-69
2023/06/17 11:38:21;;;;;;;9.73;7.18;;;29.90;88.30;;;;;;5091836;28;20044;-70
2023/06/17 11:40:56;;;;;;;9.07;6.72;;;30.10;87.10;;;;;;5091366;28;20047;-70
2023/06/17 11:43:26;;;;;;;10.20;7.18;;;30.00;88.80;;;;;;5091621;28;20090;-69
2023/06/17 11:45:56;;;;;;;9.65;7.13;;;29.80;87.10;;;;;;5089064;28;20407;-69
2023/06/17 11:48:29;;;;;;;9.02;6.80;;;29.50;87.60;;;;;;5090171;28;20093;-68
2023/06/17 11:50:58;;;;;;;8.98;6.38;;;30.00;87.00;;;;;;5091155;28;20518;-68
2023/06/17 11:53:33;;;;;;;12.07;7.18;;;30.40;87.30;;;;;;5091244;28;20082;-69
2023/06/17 11:56:06;;;;;;;11.43;7.17;;;30.30;86.20;;;;;;5091751;28;20128;-68
2023/06/17 11:58:39;;;;;;;8.88;6.43;;;30.30;85.30;;;;;;5091804;28;20085;-69
2023/06/17 12:01:05;;;;;;;9.18;7.03;;;30.10;86.10;;;;;;5120835;28;20044;-68
2023/06/17 12:03:34;;;;;;;9.73;6.57;;;30.20;87.10;;;;;;5090476;28;20066;-68
2023/06/17 12:06:00;;;;;;;9.52;6.68;;;30.20;86.60;;;;;;5089850;28;20387;-69
2023/06/17 12:08:36;;;;;;;9.48;6.72;;;30.10;88.40;;;;;;5090528;28;20036;-68
2023/06/17 12:11:07;;;;;;;10.00;6.57;;;30.30;87.20;;;;;;5090363;28;20506;-68
2023/06/17 12:13:40;;;;;;;8.43;6.72;;;30.70;87.80;;;;;;5089889;28;20393;-68
2023/06/17 12:16:25;;;;;;;8.77;5.97;;;30.20;86.00;;;;;;5090054;28;20043;-68
2023/06/17 12:18:51;;;;;;;8.95;7.00;;;30.20;85.70;;;;;;5089270;28;20044;-68
2023/06/17 12:21:21;;;;;;;9.13;6.45;;;30.30;86.90;;;;;;5091029;28;20079;-69
2023/06/17 12:23:50;;;;;;;8.98;6.38;;;30.10;86.50;;;;;;5091445;28;20041;-68
2023/06/17 12:26:26;;;;;;;11.52;7.10;;;30.00;87.00;;;;;;5094572;28;20039;-69
2023/06/17 12:28:55;;;;;;;8.43;5.95;;;30.00;86.70;;;;;;5093261;28;20044;-69
2023/06/17 12:31:21;;;;;;;10.18;6.57;;;30.10;88.20;;;;;;5094152;28;20048;-68
2023/06/17 12:33:47;;;;;;;9.35;6.78;;;30.10;87.90;;;;;;5094051;28;20048;-67
2023/06/17 12:36:14;;;;;;;8.68;6.28;;;29.90;87.20;;;;;;5093070;28;20055;-69
2023/06/17 12:38:40;;;;;;;9.15;6.13;;;30.00;86.40;;;;;;5093539;28;20392;-67